BLACK BUTTE (BLB)

Elevation: 426' · STONY CR basin · Operator: US Army Corps of Engineers

Provisional data, subject to change.
Query executed Saturday at 22:44:13   clock

Select a sensor type for a plot of data.
Note: Reservoir Flows are daily averages.

Earlier

Date RES ELE    STORAGE    RES CHG    TOC STO    ABV TOC    OUTFLOW    INFLOW    PPT INC    TEMP MN    TEMP MX    EVP PAN   
 FEET   AF   AF   AF   AF   CFS   CFS   INCHES   DEG F   DEG F   INCHES  
04/29/2016 460.60 85887 -277 136200 -50227 229 113 0.27 13 27 0.24
04/30/2016 460.57 85783 -104 136200 -50417 254 231 0.00 15 26 0.29
05/01/2016 460.55 85714 -69 136200 -50486 232 226 0.28 18 30 0.29
05/02/2016 460.53 85645 -69 136200 -50555 269 258 0.01 13 28 0.25
05/03/2016 460.48 85472 -173 136200 -50728 308 238 0.00 14 28 0.18
05/04/2016 460.47 85438 -34 136200 -50762 261 261 0.00 17 26 0.17
05/05/2016 460.52 85610 172 136200 -50590 230 329 0.00 13 20 0.13
05/06/2016 460.60 85898 -- 136200 -- 115 270 0.20 12 21 0.10
05/07/2016 460.80 86580 -- 136200 -- 55 404 0.02 14 16 0.04
05/08/2016 461.00 87276 -- 136200 -48924 42 406 0.22 14 22 0.13
05/09/2016 461.16 87835 559 136200 -48365 42 346 0.05 16 26 0.22
05/10/2016 461.22 88045 210 136200 -48155 75 210 0.43 16 30 0.29
05/11/2016 461.27 88220 175 136200 -47980 106 222 0.11 16 33 0.28
05/12/2016 461.29 88290 70 136200 -47910 143 204 0.06 14 32 0.26
05/13/2016 461.27 88220 -70 136200 -47980 170 164 0.04 15 30 0.28
05/14/2016 461.27 88220 0 136200 -47980 183 205 0.00 10 25 0.21
05/15/2016 461.26 88185 -35 136200 -48015 196 203 0.00 13 29 0.25
05/16/2016 461.18 87905 -280 136200 -48295 240 130 0.22 19 30 0.31
05/17/2016 461.11 87660 -245 136200 -48540 265 173 0.01 18 33 0.31
05/18/2016 461.04 87416 -244 136200 -48784 258 166 0.00 21 36 0.31
05/19/2016 460.96 87137 -279 136200 -49063 267 152 0.00 18 29 0.26
05/20/2016 460.90 86928 -209 136200 -49272 246 155 0.00 11 18 0.14
05/21/2016 460.87 86823 -105 136200 -49377 216 179 0.11 10 19 0.15
05/22/2016 460.84 86719 -104 136200 -49481 202 167 0.00 9 22 0.17
05/23/2016 460.83 86684 -35 136200 -49516 175 175 0.00 12 23 0.18
05/24/2016 460.81 86615 -69 136200 -49585 176 164 0.27 13 25 0.23
05/25/2016 460.79 86545 -70 136200 -49655 183 172 0.63 14 30 0.25
05/26/2016 460.71 86268 -277 136200 -49932 186 72 0.28 13 31 0.26
05/27/2016 460.63 85991 -277 136200 -50209 180 69 0.14 16 32 0.28
05/28/2016 -- -- -- -- -- -- -- -- -- -- --

Later | Latest

Warning! This data is preliminary and subject to revision.

Show BLB Map | Plot BLB Data | 1 Month BLB Data | Real-Time BLB Data | BLB Info